Van Buren Point, New York
Current Conditions -  °F | °C
As of 10:53 AM on Wednesday 26 Nov 2014 (Local Time) from KDKK Reporting Station
Overcast Overcast  
Wind Chill: 28°   Ceiling: 2800
Heat Index: 34°   Visibility: 10mi
Dew Point: 24°   Wind: 7mph
Humidity: 67%   Direction: 60°ENE
Pressure: 30.14"   Gusts: NA
Location:  42.45°N, 79.42°W
Report Text: KDKK 261553Z AUTO 06006KT 10SM OVC028 01/M04 A3014 RMK AO2 SLP214 T00111044
Loading
Personal Weather Stations






























Interactive Weather Map New forecast layout! Learn more

10-Day Weather Forecast

Advertisements
Track Severe Weather on mobile